Time;durP1;ratioP1;P1;durP2;ratioP2;P2;SDS_P1;SDS_P2;PMS_P1;PMS_P2;Temp;Humidity;BMP_temperature;BMP_pressure;BME280_temperature;BME280_humidity;BME280_pressure;Samples;Min_cycle;Max_cycle;Signal;HPM_P1;HPM_P2
2022/03/21 00:00:12;;;;;;;0.90;0.90;;;;;;;;;;1794977;78;26277;-45
2022/03/21 00:02:40;;;;;;;1.00;1.00;;;;;;;;;;1814379;79;26213;-47
2022/03/21 00:05:08;;;;;;;1.00;1.00;;;;;;;;;;1804806;78;26399;-47
2022/03/21 00:07:35;;;;;;;0.90;0.90;;;;;;;;;;1804469;77;26780;-47
2022/03/21 00:10:03;;;;;;;1.10;1.00;;;;;;;;;;1817573;78;26998;-48
2022/03/21 00:12:30;;;;;;;0.95;0.95;;;;;;;;;;1815916;77;26278;-48
2022/03/21 00:14:58;;;;;;;1.60;1.00;;;;;;;;;;1808462;78;26774;-47
2022/03/21 00:17:25;;;;;;;1.20;1.20;;;;;;;;;;1815313;78;26285;-47
2022/03/21 00:19:52;;;;;;;1.00;1.00;;;;;;;;;;1745865;80;26312;-46
2022/03/21 00:22:20;;;;;;;1.10;1.10;;;;;;;;;;1756749;80;26303;-47
2022/03/21 00:24:49;;;;;;;0.98;0.98;;;;;;;;;;1757042;80;26308;-47
2022/03/21 00:27:16;;;;;;;1.00;1.00;;;;;;;;;;1767781;80;26305;-46
2022/03/21 00:29:43;;;;;;;1.05;1.05;;;;;;;;;;1760644;80;26284;-49
2022/03/21 00:32:10;;;;;;;1.10;1.10;;;;;;;;;;1763172;80;26220;-47
2022/03/21 00:34:38;;;;;;;2.47;1.20;;;;;;;;;;1746008;80;26322;-46
2022/03/21 00:37:06;;;;;;;1.15;1.15;;;;;;;;;;1758923;80;26339;-46
2022/03/21 00:39:33;;;;;;;1.20;1.20;;;;;;;;;;1747074;81;26303;-48
2022/03/21 00:42:02;;;;;;;3.37;1.17;;;;;;;;;;1743044;81;26299;-49
2022/03/21 00:44:29;;;;;;;1.22;1.22;;;;;;;;;;1760490;80;26361;-48
2022/03/21 00:46:56;;;;;;;1.10;1.10;;;;;;;;;;1754342;80;26348;-46
2022/03/21 00:49:24;;;;;;;1.20;1.20;;;;;;;;;;1756009;80;26891;-49
2022/03/21 00:51:51;;;;;;;1.30;1.30;;;;;;;;;;1756254;81;26352;-46
2022/03/21 00:54:18;;;;;;;1.20;1.20;;;;;;;;;;1749900;80;26289;-46
2022/03/21 00:56:46;;;;;;;1.20;1.20;;;;;;;;;;1765632;80;26352;-47
2022/03/21 00:59:13;;;;;;;1.37;1.30;;;;;;;;;;1755985;80;26340;-46
2022/03/21 01:01:41;;;;;;;1.25;1.25;;;;;;;;;;1762408;80;26266;-47
2022/03/21 01:04:09;;;;;;;1.20;1.20;;;;;;;;;;1744629;80;26972;-49
2022/03/21 01:06:38;;;;;;;1.37;1.27;;;;;;;;;;1761666;80;26366;-46
2022/03/21 01:09:05;;;;;;;1.40;1.32;;;;;;;;;;1751438;80;26358;-48
2022/03/21 01:11:32;;;;;;;1.47;1.37;;;;;;;;;;1753954;80;26308;-46
2022/03/21 01:14:00;;;;;;;1.40;1.40;;;;;;;;;;1754796;81;26342;-49
2022/03/21 01:16:27;;;;;;;1.50;1.40;;;;;;;;;;1756693;80;26375;-48
2022/03/21 01:18:54;;;;;;;1.50;1.50;;;;;;;;;;1760380;80;26851;-47
2022/03/21 01:21:21;;;;;;;1.42;1.40;;;;;;;;;;1781703;78;26782;-49
2022/03/21 01:23:49;;;;;;;1.55;1.47;;;;;;;;;;1808060;78;26723;-47
2022/03/21 01:26:16;;;;;;;2.72;1.52;;;;;;;;;;1802124;78;26325;-48
2022/03/21 01:28:43;;;;;;;1.60;1.60;;;;;;;;;;1779118;79;26210;-47
2022/03/21 01:31:10;;;;;;;1.40;1.40;;;;;;;;;;1790945;79;26391;-48
2022/03/21 01:33:38;;;;;;;1.57;1.57;;;;;;;;;;1809073;78;26259;-48
2022/03/21 01:36:06;;;;;;;1.57;1.57;;;;;;;;;;1786160;78;26220;-50
2022/03/21 01:38:34;;;;;;;1.50;1.50;;;;;;;;;;1794245;78;26350;-46
2022/03/21 01:41:02;;;;;;;3.52;1.60;;;;;;;;;;1794951;78;26248;-46
2022/03/21 01:43:29;;;;;;;1.52;1.42;;;;;;;;;;1780095;79;26868;-46
2022/03/21 01:45:56;;;;;;;1.55;1.55;;;;;;;;;;1792067;78;26352;-48
2022/03/21 01:48:24;;;;;;;1.57;1.57;;;;;;;;;;1803014;78;26365;-46
2022/03/21 01:50:52;;;;;;;1.77;1.72;;;;;;;;;;1787041;78;26808;-46
2022/03/21 01:56:05;;;;;;;1.90;1.72;;;;;;;;;;1792662;78;26377;-45
2022/03/21 01:58:34;;;;;;;1.60;1.60;;;;;;;;;;1794792;78;26723;-45
2022/03/21 02:01:01;;;;;;;1.47;1.47;;;;;;;;;;1787927;79;26309;-46
2022/03/21 02:03:29;;;;;;;1.65;1.65;;;;;;;;;;1781177;79;26777;-45
2022/03/21 02:05:57;;;;;;;1.72;1.70;;;;;;;;;;1799187;78;26283;-46
2022/03/21 02:08:24;;;;;;;1.75;1.65;;;;;;;;;;1791861;79;26290;-45
2022/03/21 02:10:52;;;;;;;1.80;1.70;;;;;;;;;;1791731;78;26370;-48
2022/03/21 02:13:21;;;;;;;1.50;1.50;;;;;;;;;;1778811;79;26267;-45
2022/03/21 02:15:48;;;;;;;1.70;1.60;;;;;;;;;;1813590;78;26287;-47
2022/03/21 02:18:17;;;;;;;1.80;1.70;;;;;;;;;;1787785;78;26282;-47
2022/03/21 02:20:45;;;;;;;1.42;1.42;;;;;;;;;;1789959;79;26365;-46
2022/03/21 02:23:22;;;;;;;1.60;1.50;;;;;;;;;;1813344;78;26716;-45
2022/03/21 02:25:50;;;;;;;1.65;1.60;;;;;;;;;;1789115;78;26722;-48
2022/03/21 02:28:18;;;;;;;1.60;1.60;;;;;;;;;;1794498;78;26319;-45
2022/03/21 02:30:47;;;;;;;1.65;1.50;;;;;;;;;;1787192;78;26710;-46
2022/03/21 02:33:15;;;;;;;1.98;1.87;;;;;;;;;;1782261;79;26826;-49
2022/03/21 02:35:47;;;;;;;1.65;1.65;;;;;;;;;;1788443;78;26761;-46
2022/03/21 02:38:16;;;;;;;1.75;1.75;;;;;;;;;;1789856;78;26275;-46
2022/03/21 02:40:44;;;;;;;1.62;1.62;;;;;;;;;;1794066;78;26742;-47
2022/03/21 02:43:11;;;;;;;1.75;1.75;;;;;;;;;;1790653;79;26299;-48
2022/03/21 02:45:40;;;;;;;1.70;1.70;;;;;;;;;;1797763;79;26300;-47
2022/03/21 02:48:08;;;;;;;1.70;1.70;;;;;;;;;;1797462;78;26291;-47
2022/03/21 02:50:43;;;;;;;1.70;1.60;;;;;;;;;;1792473;79;26289;-45
2022/03/21 02:53:11;;;;;;;1.85;1.80;;;;;;;;;;1790580;78;26785;-46
2022/03/21 02:55:42;;;;;;;1.90;1.80;;;;;;;;;;1794531;79;26262;-48
2022/03/21 02:58:10;;;;;;;1.77;1.67;;;;;;;;;;1796430;78;26291;-49
2022/03/21 03:00:37;;;;;;;1.65;1.65;;;;;;;;;;1796214;78;26418;-48
2022/03/21 03:03:05;;;;;;;1.65;1.65;;;;;;;;;;1788340;78;26385;-45
2022/03/21 03:05:32;;;;;;;1.67;1.67;;;;;;;;;;1792568;78;26266;-46
2022/03/21 03:08:02;;;;;;;1.85;1.70;;;;;;;;;;1792993;78;26258;-47
2022/03/21 03:10:28;;;;;;;1.98;1.90;;;;;;;;;;1781733;78;26384;-45
2022/03/21 03:12:56;;;;;;;2.00;1.90;;;;;;;;;;1801288;78;26334;-45
2022/03/21 03:15:24;;;;;;;1.87;1.80;;;;;;;;;;1803194;79;26521;-46
2022/03/21 03:17:51;;;;;;;2.52;1.90;;;;;;;;;;1799303;79;26247;-47
2022/03/21 03:20:19;;;;;;;2.00;1.90;;;;;;;;;;1801971;77;26305;-46
2022/03/21 03:22:46;;;;;;;1.87;1.80;;;;;;;;;;1808338;77;26690;-45
2022/03/21 03:25:13;;;;;;;2.10;2.00;;;;;;;;;;1813498;77;26341;-47
2022/03/21 03:27:40;;;;;;;2.10;2.00;;;;;;;;;;1815603;77;26306;-48
2022/03/21 03:30:08;;;;;;;2.00;1.90;;;;;;;;;;1821548;77;26270;-47
2022/03/21 03:32:36;;;;;;;1.90;1.80;;;;;;;;;;1800766;78;26744;-46
2022/03/21 03:35:04;;;;;;;1.90;1.90;;;;;;;;;;1795507;79;26289;-46
2022/03/21 03:37:31;;;;;;;1.72;1.72;;;;;;;;;;1811066;77;26259;-45
2022/03/21 03:39:59;;;;;;;1.98;1.90;;;;;;;;;;1810432;78;26355;-46
2022/03/21 03:42:26;;;;;;;1.85;1.77;;;;;;;;;;1798409;78;26389;-48
2022/03/21 03:44:54;;;;;;;2.00;1.90;;;;;;;;;;1817519;77;26275;-46
2022/03/21 03:47:21;;;;;;;1.90;1.80;;;;;;;;;;1816045;77;26279;-46
2022/03/21 03:49:48;;;;;;;1.92;1.82;;;;;;;;;;1817842;77;26337;-47
2022/03/21 03:52:16;;;;;;;2.10;2.00;;;;;;;;;;1797162;77;26262;-48
2022/03/21 03:54:43;;;;;;;2.02;1.92;;;;;;;;;;1803602;77;26302;-48
2022/03/21 03:57:11;;;;;;;2.12;2.02;;;;;;;;;;1806949;77;26255;-48
2022/03/21 03:59:38;;;;;;;2.00;1.90;;;;;;;;;;1798013;78;26368;-47
2022/03/21 04:02:06;;;;;;;2.00;1.90;;;;;;;;;;1813801;77;26340;-49
2022/03/21 04:04:33;;;;;;;2.12;2.00;;;;;;;;;;1804261;77;26295;-47
2022/03/21 04:07:00;;;;;;;2.00;1.90;;;;;;;;;;1813398;78;26274;-47
2022/03/21 04:09:28;;;;;;;2.08;1.98;;;;;;;;;;1799717;79;26565;-46
2022/03/21 04:11:55;;;;;;;2.10;2.00;;;;;;;;;;1811153;77;26274;-48
2022/03/21 04:14:22;;;;;;;2.08;1.98;;;;;;;;;;1818619;78;26274;-46
2022/03/21 04:16:50;;;;;;;2.08;1.98;;;;;;;;;;1816773;78;26266;-46
2022/03/21 04:19:17;;;;;;;2.20;2.10;;;;;;;;;;1816081;78;26251;-46
2022/03/21 04:21:44;;;;;;;1.95;1.87;;;;;;;;;;1797350;78;26372;-47
2022/03/21 04:24:12;;;;;;;2.10;2.00;;;;;;;;;;1797056;78;26377;-46
2022/03/21 04:26:39;;;;;;;3.22;2.17;;;;;;;;;;1790344;79;26227;-48
2022/03/21 04:29:07;;;;;;;2.30;2.20;;;;;;;;;;1781579;79;26342;-47
2022/03/21 04:31:34;;;;;;;2.33;2.22;;;;;;;;;;1786436;78;26901;-46
2022/03/21 04:34:02;;;;;;;2.00;1.90;;;;;;;;;;1796818;78;26327;-48
2022/03/21 04:36:29;;;;;;;2.17;2.08;;;;;;;;;;1806061;78;26407;-47
2022/03/21 04:38:57;;;;;;;2.20;2.10;;;;;;;;;;1803305;78;26326;-47
2022/03/21 04:41:24;;;;;;;2.40;2.30;;;;;;;;;;1802013;79;26644;-45
2022/03/21 04:43:51;;;;;;;2.30;2.20;;;;;;;;;;1795315;78;26289;-49
2022/03/21 04:46:19;;;;;;;2.42;2.30;;;;;;;;;;1789048;79;26909;-45
2022/03/21 04:48:46;;;;;;;2.30;2.20;;;;;;;;;;1814249;78;26311;-49
2022/03/21 04:51:14;;;;;;;2.27;2.10;;;;;;;;;;1795503;78;26912;-47
2022/03/21 04:53:41;;;;;;;2.85;2.00;;;;;;;;;;1794172;79;26298;-48
2022/03/21 04:56:09;;;;;;;2.25;2.15;;;;;;;;;;1796141;79;26372;-47
2022/03/21 04:58:36;;;;;;;6.80;2.47;;;;;;;;;;1800781;79;26818;-46
2022/03/21 05:01:03;;;;;;;2.55;2.37;;;;;;;;;;1795702;78;26824;-46
2022/03/21 05:03:32;;;;;;;2.40;2.20;;;;;;;;;;1797780;79;26240;-45
2022/03/21 05:05:59;;;;;;;2.52;2.33;;;;;;;;;;1800976;78;26817;-45
2022/03/21 05:08:27;;;;;;;2.42;2.30;;;;;;;;;;1796395;78;26307;-47
2022/03/21 05:10:54;;;;;;;2.20;2.10;;;;;;;;;;1797797;79;26345;-47
2022/03/21 05:13:21;;;;;;;2.75;2.27;;;;;;;;;;1796867;78;26343;-51
2022/03/21 05:15:49;;;;;;;2.30;2.20;;;;;;;;;;1797348;78;27007;-50
2022/03/21 05:18:16;;;;;;;2.60;2.40;;;;;;;;;;1791687;79;26366;-50
2022/03/21 05:20:44;;;;;;;2.85;2.40;;;;;;;;;;1794875;79;26303;-48
2022/03/21 05:31:28;;;;;;;2.60;2.40;;;;;;;;;;1796451;79;26331;-47
2022/03/21 05:36:41;;;;;;;2.80;2.60;;;;;;;;;;1802398;78;26374;-45
2022/03/21 05:39:08;;;;;;;2.80;2.60;;;;;;;;;;1781543;79;26325;-47
2022/03/21 05:41:35;;;;;;;4.78;3.20;;;;;;;;;;1788734;78;26292;-45
2022/03/21 05:44:03;;;;;;;2.70;2.60;;;;;;;;;;1795384;79;26294;-47
2022/03/21 05:46:30;;;;;;;2.60;2.45;;;;;;;;;;1792473;78;26365;-47
2022/03/21 05:49:00;;;;;;;2.75;2.55;;;;;;;;;;1789545;79;26283;-47
2022/03/21 05:51:30;;;;;;;3.40;2.65;;;;;;;;;;1785785;79;25957;-48
2022/03/21 05:53:58;;;;;;;2.90;2.58;;;;;;;;;;1791592;78;26635;-46
2022/03/21 05:56:27;;;;;;;3.25;2.92;;;;;;;;;;1795433;79;26236;-47
2022/03/21 05:58:56;;;;;;;2.72;2.60;;;;;;;;;;1793952;79;27156;-46
2022/03/21 06:01:24;;;;;;;2.65;2.50;;;;;;;;;;1799210;79;26593;-48
2022/03/21 06:03:53;;;;;;;2.80;2.60;;;;;;;;;;1795313;79;26356;-47
2022/03/21 06:06:23;;;;;;;2.60;2.50;;;;;;;;;;1794262;78;26356;-46
2022/03/21 06:08:51;;;;;;;2.87;2.67;;;;;;;;;;1791220;79;26270;-47
2022/03/21 06:11:19;;;;;;;3.00;2.80;;;;;;;;;;1786300;78;26345;-47
2022/03/21 06:13:47;;;;;;;2.85;2.75;;;;;;;;;;1788971;79;26779;-48
2022/03/21 06:16:15;;;;;;;2.72;2.60;;;;;;;;;;1796761;78;26766;-48
2022/03/21 06:18:42;;;;;;;2.87;2.72;;;;;;;;;;1789557;78;26371;-51
2022/03/21 06:21:10;;;;;;;2.80;2.60;;;;;;;;;;1790834;79;26298;-49
2022/03/21 06:23:37;;;;;;;2.92;2.83;;;;;;;;;;1805375;78;27016;-46
2022/03/21 06:26:06;;;;;;;2.58;2.47;;;;;;;;;;1803215;78;26374;-46
2022/03/21 06:28:35;;;;;;;3.00;2.80;;;;;;;;;;1795898;79;26955;-50
2022/03/21 06:31:03;;;;;;;3.22;2.72;;;;;;;;;;1793129;78;26297;-48
2022/03/21 06:33:31;;;;;;;3.05;2.72;;;;;;;;;;1798724;78;26290;-48
2022/03/21 06:36:00;;;;;;;2.70;2.60;;;;;;;;;;1794683;78;26314;-48
2022/03/21 06:38:27;;;;;;;3.30;3.10;;;;;;;;;;1809451;79;26636;-47
2022/03/21 06:40:55;;;;;;;2.70;2.60;;;;;;;;;;1783796;78;26218;-47
2022/03/21 06:43:24;;;;;;;2.70;2.50;;;;;;;;;;1786647;78;26721;-47
2022/03/21 06:45:52;;;;;;;3.00;2.83;;;;;;;;;;1792681;78;26344;-45
2022/03/21 06:48:21;;;;;;;2.62;2.52;;;;;;;;;;1801131;78;26650;-46
2022/03/21 06:50:48;;;;;;;2.45;2.35;;;;;;;;;;1800347;78;26287;-48
2022/03/21 06:53:17;;;;;;;3.70;2.80;;;;;;;;;;1791409;78;26289;-46
2022/03/21 06:55:45;;;;;;;3.08;2.87;;;;;;;;;;1792219;78;26298;-47
2022/03/21 06:58:13;;;;;;;2.90;2.72;;;;;;;;;;1795046;78;26364;-46
2022/03/21 07:00:45;;;;;;;4.53;2.83;;;;;;;;;;1789268;79;26305;-46
2022/03/21 07:03:15;;;;;;;4.45;3.17;;;;;;;;;;1790539;79;26325;-52
2022/03/21 07:05:42;;;;;;;3.80;3.08;;;;;;;;;;1802111;78;26341;-50
2022/03/21 07:08:10;;;;;;;5.12;3.25;;;;;;;;;;1796576;78;26680;-50
2022/03/21 07:10:40;;;;;;;5.30;3.42;;;;;;;;;;1785418;79;28263;-48
2022/03/21 07:13:06;;;;;;;3.67;2.95;;;;;;;;;;1797623;78;26301;-49
2022/03/21 07:15:34;;;;;;;5.03;3.15;;;;;;;;;;1818552;78;26301;-47
2022/03/21 07:18:01;;;;;;;8.75;3.10;;;;;;;;;;1802939;78;26356;-49
2022/03/21 07:20:28;;;;;;;6.35;2.90;;;;;;;;;;1795551;78;26251;-50
2022/03/21 07:22:57;;;;;;;5.08;3.20;;;;;;;;;;1785348;79;26333;-47
2022/03/21 07:25:24;;;;;;;3.22;2.92;;;;;;;;;;1788119;78;26264;-47
2022/03/21 07:27:55;;;;;;;4.05;3.08;;;;;;;;;;1792861;79;26399;-47
2022/03/21 07:30:22;;;;;;;2.98;2.72;;;;;;;;;;1809116;78;26269;-49
2022/03/21 07:32:50;;;;;;;3.60;3.30;;;;;;;;;;1800187;78;26252;-47
2022/03/21 07:35:17;;;;;;;3.20;3.00;;;;;;;;;;1788125;78;27388;-48
2022/03/21 07:37:46;;;;;;;3.08;2.87;;;;;;;;;;1776112;79;26274;-47
2022/03/21 07:40:15;;;;;;;3.30;3.00;;;;;;;;;;1776408;78;26395;-50
2022/03/21 07:42:43;;;;;;;3.10;2.90;;;;;;;;;;1788129;78;26325;-51
2022/03/21 07:47:57;;;;;;;3.05;2.75;;;;;;;;;;1781423;78;26413;-55
2022/03/21 07:50:25;;;;;;;4.17;3.00;;;;;;;;;;1795440;79;26248;-50
2022/03/21 07:52:53;;;;;;;3.08;2.80;;;;;;;;;;1784164;78;26290;-49
2022/03/21 07:55:20;;;;;;;3.08;2.87;;;;;;;;;;1798938;78;26294;-49
2022/03/21 07:57:48;;;;;;;2.87;2.67;;;;;;;;;;1800426;77;26699;-49
2022/03/21 08:00:16;;;;;;;5.20;3.55;;;;;;;;;;1779683;79;26353;-48
2022/03/21 08:02:45;;;;;;;2.87;2.77;;;;;;;;;;1781586;79;26543;-50
2022/03/21 08:05:13;;;;;;;3.00;2.80;;;;;;;;;;1786130;79;26233;-48
2022/03/21 08:07:41;;;;;;;3.37;2.60;;;;;;;;;;1792906;78;26224;-48
2022/03/21 08:10:09;;;;;;;2.90;2.80;;;;;;;;;;1802097;78;26940;-47
2022/03/21 08:12:36;;;;;;;2.80;2.65;;;;;;;;;;1783719;78;26349;-45
2022/03/21 08:15:04;;;;;;;3.10;2.90;;;;;;;;;;1785169;78;26634;-48
2022/03/21 08:17:33;;;;;;;4.30;2.70;;;;;;;;;;1785037;79;25671;-50
2022/03/21 08:20:00;;;;;;;2.83;2.55;;;;;;;;;;1795990;78;26348;-49
2022/03/21 08:22:28;;;;;;;2.90;2.70;;;;;;;;;;1807647;78;26902;-49
2022/03/21 08:24:55;;;;;;;3.00;2.70;;;;;;;;;;1804039;77;26277;-49
2022/03/21 08:27:22;;;;;;;2.52;2.42;;;;;;;;;;1810910;77;26306;-47
2022/03/21 08:29:49;;;;;;;2.40;2.30;;;;;;;;;;1795777;77;26368;-50
2022/03/21 08:32:17;;;;;;;2.50;2.40;;;;;;;;;;1806721;77;26863;-47
2022/03/21 08:34:45;;;;;;;2.77;2.65;;;;;;;;;;1806426;78;26271;-48
2022/03/21 08:37:12;;;;;;;2.83;2.62;;;;;;;;;;1800750;77;26738;-47
2022/03/21 08:39:39;;;;;;;2.50;2.40;;;;;;;;;;1792800;77;26771;-54
2022/03/21 08:42:07;;;;;;;2.90;2.70;;;;;;;;;;1815418;77;27528;-52
2022/03/21 08:44:34;;;;;;;2.92;2.67;;;;;;;;;;1803165;77;26356;-49
2022/03/21 08:47:01;;;;;;;2.65;2.45;;;;;;;;;;1809184;79;26271;-49
2022/03/21 08:49:33;;;;;;;2.58;2.40;;;;;;;;;;1805678;78;26310;-47
2022/03/21 08:51:58;;;;;;;2.67;2.50;;;;;;;;;;1803358;78;26357;-48
2022/03/21 08:54:26;;;;;;;2.52;2.37;;;;;;;;;;1805082;77;26790;-48
2022/03/21 08:56:53;;;;;;;3.02;2.58;;;;;;;;;;1806787;77;26749;-47
2022/03/21 08:59:20;;;;;;;2.42;2.33;;;;;;;;;;1819114;79;26259;-47
2022/03/21 09:01:48;;;;;;;2.30;2.20;;;;;;;;;;1818784;77;26545;-48
2022/03/21 09:04:15;;;;;;;4.55;2.62;;;;;;;;;;1793517;77;28887;-48
2022/03/21 09:06:42;;;;;;;3.83;2.52;;;;;;;;;;1808028;77;26218;-47
2022/03/21 09:09:11;;;;;;;2.72;2.37;;;;;;;;;;1807336;77;26255;-48
2022/03/21 09:11:39;;;;;;;5.80;2.45;;;;;;;;;;1806244;77;26360;-49
2022/03/21 09:14:10;;;;;;;4.15;2.30;;;;;;;;;;1799268;78;26371;-47
2022/03/21 09:16:38;;;;;;;3.12;2.30;;;;;;;;;;1806807;78;26287;-44
2022/03/21 09:19:04;;;;;;;2.50;2.40;;;;;;;;;;1797266;77;26898;-46
2022/03/21 09:21:32;;;;;;;2.10;2.00;;;;;;;;;;1821945;77;26703;-46
2022/03/21 09:23:59;;;;;;;3.42;2.60;;;;;;;;;;1797782;78;28355;-46
2022/03/21 09:26:26;;;;;;;3.33;2.15;;;;;;;;;;1798176;78;26638;-46
2022/03/21 09:29:04;;;;;;;2.22;2.12;;;;;;;;;;1799221;79;26294;-43
2022/03/21 09:31:23;;;;;;;5.78;2.00;;;;;;;;;;1796965;79;26398;-46
2022/03/21 09:33:50;;;;;;;2.20;2.10;;;;;;;;;;1782406;78;26274;-52
2022/03/21 09:36:17;;;;;;;2.20;2.10;;;;;;;;;;1790457;79;26341;-50
2022/03/21 09:38:45;;;;;;;3.05;2.20;;;;;;;;;;1780088;79;26309;-48
2022/03/21 09:41:22;;;;;;;2.17;2.08;;;;;;;;;;1782033;79;26274;-45
2022/03/21 09:43:44;;;;;;;3.15;1.98;;;;;;;;;;1778756;79;26376;-48
2022/03/21 09:46:12;;;;;;;2.40;2.20;;;;;;;;;;1770696;79;29721;-50
2022/03/21 09:48:39;;;;;;;2.22;2.12;;;;;;;;;;1792507;78;26353;-49
2022/03/21 09:51:06;;;;;;;2.05;1.95;;;;;;;;;;1795168;77;26270;-48
2022/03/21 09:53:34;;;;;;;5.15;2.30;;;;;;;;;;1789157;79;38759;-44
2022/03/21 09:56:01;;;;;;;2.17;2.08;;;;;;;;;;1787862;79;26278;-55
2022/03/21 09:58:30;;;;;;;2.33;2.22;;;;;;;;;;1797597;78;26255;-55
2022/03/21 10:00:58;;;;;;;2.40;2.30;;;;;;;;;;1788083;78;26298;-49
2022/03/21 10:03:25;;;;;;;2.62;2.42;;;;;;;;;;1789721;78;26369;-48
2022/03/21 10:05:53;;;;;;;2.30;2.20;;;;;;;;;;1814694;78;26263;-50
2022/03/21 10:08:24;;;;;;;2.25;2.15;;;;;;;;;;1794862;78;26364;-49
2022/03/21 10:10:53;;;;;;;2.50;2.30;;;;;;;;;;1800553;78;26263;-49
2022/03/21 10:13:21;;;;;;;2.25;2.15;;;;;;;;;;1784603;78;26303;-56
2022/03/21 10:15:48;;;;;;;2.45;2.35;;;;;;;;;;1793901;78;28626;-52
2022/03/21 10:18:18;;;;;;;2.37;2.27;;;;;;;;;;1797663;78;26392;-46
2022/03/21 10:20:45;;;;;;;2.30;2.20;;;;;;;;;;1797108;78;26703;-43
2022/03/21 10:23:17;;;;;;;2.58;2.37;;;;;;;;;;1797060;78;26313;-47
2022/03/21 10:25:44;;;;;;;2.40;2.30;;;;;;;;;;1800302;78;26242;-47
2022/03/21 10:28:13;;;;;;;2.42;2.33;;;;;;;;;;1792527;78;26272;-44
2022/03/21 10:30:44;;;;;;;2.50;2.40;;;;;;;;;;1792629;78;26640;-52
2022/03/21 10:33:11;;;;;;;2.10;2.00;;;;;;;;;;1787254;78;26281;-49
2022/03/21 10:35:50;;;;;;;2.75;2.02;;;;;;;;;;1785180;79;26902;-51
2022/03/21 10:38:16;;;;;;;2.20;2.10;;;;;;;;;;1795755;79;26306;-47
2022/03/21 10:40:47;;;;;;;2.10;2.00;;;;;;;;;;1817056;78;26389;-50
2022/03/21 10:43:15;;;;;;;2.35;2.20;;;;;;;;;;1794677;78;26026;-47
2022/03/21 10:45:47;;;;;;;2.27;2.17;;;;;;;;;;1805189;79;26625;-45
2022/03/21 10:48:16;;;;;;;2.20;2.10;;;;;;;;;;1787975;78;26254;-46
2022/03/21 10:50:51;;;;;;;1.90;1.85;;;;;;;;;;1798478;78;26284;-46
2022/03/21 10:53:19;;;;;;;2.05;1.95;;;;;;;;;;1806962;78;26766;-53
2022/03/21 10:55:48;;;;;;;2.00;1.90;;;;;;;;;;1801454;78;26262;-56
2022/03/21 10:58:16;;;;;;;2.10;2.00;;;;;;;;;;1795386;78;26293;-49
2022/03/21 11:00:44;;;;;;;1.80;1.80;;;;;;;;;;1790844;79;26223;-49
2022/03/21 11:03:16;;;;;;;2.37;2.27;;;;;;;;;;1788695;78;28479;-50
2022/03/21 11:05:45;;;;;;;2.83;2.20;;;;;;;;;;1792309;78;28284;-46
2022/03/21 11:08:13;;;;;;;2.35;2.25;;;;;;;;;;1781415;78;26422;-56
2022/03/21 11:10:40;;;;;;;2.20;2.10;;;;;;;;;;1796145;78;26306;-53
2022/03/21 11:13:08;;;;;;;2.30;2.20;;;;;;;;;;1785279;78;28420;-47
2022/03/21 11:15:37;;;;;;;2.05;1.95;;;;;;;;;;1807333;78;26361;-54
2022/03/21 11:18:05;;;;;;;3.47;2.30;;;;;;;;;;1794642;79;26286;-52
2022/03/21 11:20:33;;;;;;;2.33;2.22;;;;;;;;;;1785331;78;27609;-47
2022/03/21 11:23:01;;;;;;;2.17;2.08;;;;;;;;;;1799897;79;26267;-45
2022/03/21 11:25:30;;;;;;;2.10;2.00;;;;;;;;;;1795623;78;26313;-45
2022/03/21 11:28:04;;;;;;;2.10;2.00;;;;;;;;;;1806627;78;26718;-46
2022/03/21 11:30:36;;;;;;;2.00;1.90;;;;;;;;;;1795663;78;26291;-56
2022/03/21 11:33:14;;;;;;;2.00;1.90;;;;;;;;;;1793853;78;26275;-48
2022/03/21 11:35:43;;;;;;;2.10;2.00;;;;;;;;;;1795095;79;26671;-47
2022/03/21 11:38:24;;;;;;;2.12;2.02;;;;;;;;;;1796429;79;26338;-49
2022/03/21 11:40:52;;;;;;;2.20;2.00;;;;;;;;;;1792237;78;26755;-49
2022/03/21 11:43:21;;;;;;;2.20;2.10;;;;;;;;;;1796907;78;26364;-49
2022/03/21 11:45:55;;;;;;;2.22;2.12;;;;;;;;;;1789454;79;26722;-46
2022/03/21 11:48:23;;;;;;;2.27;2.10;;;;;;;;;;1788114;78;26291;-49
2022/03/21 11:50:52;;;;;;;2.00;1.90;;;;;;;;;;1787235;78;26313;-49
2022/03/21 11:53:20;;;;;;;2.22;2.12;;;;;;;;;;1797651;78;26255;-48
2022/03/21 11:55:48;;;;;;;2.15;2.05;;;;;;;;;;1791346;78;26353;-49
2022/03/21 11:58:25;;;;;;;2.15;2.05;;;;;;;;;;1785013;78;26320;-49
2022/03/21 12:01:03;;;;;;;2.10;2.00;;;;;;;;;;1785795;78;26290;-50
2022/03/21 12:03:30;;;;;;;2.20;2.10;;;;;;;;;;1778584;79;28348;-48
2022/03/21 12:05:58;;;;;;;2.22;2.12;;;;;;;;;;1799295;78;27248;-51
2022/03/21 12:08:27;;;;;;;1.92;1.82;;;;;;;;;;1784623;78;26283;-49
2022/03/21 12:10:54;;;;;;;1.77;1.77;;;;;;;;;;1802586;79;26271;-51
2022/03/21 12:13:21;;;;;;;1.98;1.87;;;;;;;;;;1794710;78;26815;-49
2022/03/21 12:15:52;;;;;;;2.30;2.20;;;;;;;;;;1792016;78;26736;-48
2022/03/21 12:18:19;;;;;;;2.05;1.95;;;;;;;;;;1789831;78;26356;-50
2022/03/21 12:20:49;;;;;;;2.02;1.92;;;;;;;;;;1804180;78;26303;-52
2022/03/21 12:23:18;;;;;;;2.20;2.10;;;;;;;;;;1796254;78;26756;-51
2022/03/21 12:25:47;;;;;;;2.27;2.17;;;;;;;;;;1785885;78;26700;-50
2022/03/21 12:28:18;;;;;;;2.20;2.10;;;;;;;;;;1785819;78;26278;-47
2022/03/21 12:30:49;;;;;;;1.77;1.67;;;;;;;;;;1791692;79;26302;-48
2022/03/21 12:33:16;;;;;;;2.20;2.10;;;;;;;;;;1784846;78;26239;-52
2022/03/21 12:35:48;;;;;;;1.98;1.87;;;;;;;;;;1778645;79;26886;-49
2022/03/21 12:38:23;;;;;;;1.82;1.72;;;;;;;;;;1776438;79;26298;-51
2022/03/21 12:41:03;;;;;;;1.95;1.85;;;;;;;;;;1789779;78;26765;-50
2022/03/21 12:43:27;;;;;;;2.08;1.98;;;;;;;;;;1784576;79;26278;-50
2022/03/21 12:46:00;;;;;;;2.08;1.98;;;;;;;;;;1779390;78;26286;-48
2022/03/21 12:48:26;;;;;;;1.70;1.70;;;;;;;;;;1781612;79;26787;-49
2022/03/21 12:50:53;;;;;;;2.05;1.95;;;;;;;;;;1816191;78;26738;-47
2022/03/21 12:53:22;;;;;;;2.00;1.90;;;;;;;;;;1805107;78;26708;-47
2022/03/21 12:56:03;;;;;;;2.00;1.90;;;;;;;;;;1798842;79;26302;-49
2022/03/21 12:58:30;;;;;;;1.70;1.70;;;;;;;;;;1802600;78;26341;-44
2022/03/21 13:01:03;;;;;;;2.00;1.90;;;;;;;;;;1799518;78;26338;-48
2022/03/21 13:03:30;;;;;;;2.08;1.87;;;;;;;;;;1778796;78;26875;-43
2022/03/21 13:11:29;;;;;;;2.15;2.05;;;;;;;;;;1799759;78;27354;-44
2022/03/21 13:13:58;;;;;;;2.05;1.95;;;;;;;;;;1777288;79;27317;-46
2022/03/21 13:16:26;;;;;;;2.17;2.00;;;;;;;;;;1796815;78;27359;-48
2022/03/21 13:18:54;;;;;;;2.17;2.08;;;;;;;;;;1778630;78;26368;-49
2022/03/21 13:21:22;;;;;;;2.30;2.10;;;;;;;;;;1786939;78;28286;-52
2022/03/21 13:23:50;;;;;;;2.30;2.20;;;;;;;;;;1796288;79;27345;-52
2022/03/21 13:26:19;;;;;;;2.30;1.98;;;;;;;;;;1812397;78;26349;-47
2022/03/21 13:28:47;;;;;;;2.08;1.98;;;;;;;;;;1798968;77;26256;-47
2022/03/21 13:31:18;;;;;;;2.10;2.00;;;;;;;;;;1790225;79;26264;-47
2022/03/21 13:33:55;;;;;;;2.20;2.10;;;;;;;;;;1807772;78;26567;-47
2022/03/21 13:36:26;;;;;;;2.20;2.10;;;;;;;;;;1804666;78;26326;-46
2022/03/21 13:39:11;;;;;;;2.02;2.00;;;;;;;;;;1790505;78;26298;-46
2022/03/21 13:41:55;;;;;;;2.20;2.00;;;;;;;;;;1773139;79;28367;-53
2022/03/21 13:44:24;;;;;;;2.52;2.33;;;;;;;;;;1790206;79;28285;-46
2022/03/21 13:47:05;;;;;;;2.17;1.98;;;;;;;;;;1803870;78;26307;-49
2022/03/21 13:49:42;;;;;;;2.00;1.90;;;;;;;;;;1805727;79;26339;-51
2022/03/21 13:52:10;;;;;;;2.40;2.30;;;;;;;;;;1784135;79;26223;-53
2022/03/21 13:54:58;;;;;;;2.00;1.90;;;;;;;;;;1799833;79;25691;-46
2022/03/21 13:57:27;;;;;;;1.95;1.85;;;;;;;;;;1788549;79;26373;-49
2022/03/21 14:00:07;;;;;;;2.00;1.90;;;;;;;;;;1789186;78;26267;-47
2022/03/21 14:02:44;;;;;;;2.17;2.08;;;;;;;;;;1788391;78;26779;-53
2022/03/21 14:05:12;;;;;;;2.22;1.90;;;;;;;;;;1789824;78;26321;-47
2022/03/21 14:07:40;;;;;;;2.67;1.77;;;;;;;;;;1793598;78;26739;-48
2022/03/21 14:10:14;;;;;;;2.00;1.90;;;;;;;;;;1780116;79;26352;-47
2022/03/21 14:12:43;;;;;;;2.25;2.15;;;;;;;;;;1784929;78;26336;-49
2022/03/21 14:15:10;;;;;;;2.10;2.00;;;;;;;;;;1803752;78;26419;-52
2022/03/21 14:17:38;;;;;;;2.30;2.20;;;;;;;;;;1803126;79;26287;-47
2022/03/21 14:20:07;;;;;;;2.00;1.90;;;;;;;;;;1801841;78;26534;-47
2022/03/21 14:22:34;;;;;;;2.20;2.10;;;;;;;;;;1797118;79;26262;-46
2022/03/21 14:25:02;;;;;;;2.12;2.02;;;;;;;;;;1802332;77;26318;-48
2022/03/21 14:27:29;;;;;;;2.00;1.90;;;;;;;;;;1792600;78;26286;-46
2022/03/21 14:29:56;;;;;;;1.90;1.90;;;;;;;;;;1792322;79;26775;-47
2022/03/21 14:32:23;;;;;;;2.17;2.08;;;;;;;;;;1788369;79;26808;-49
2022/03/21 14:34:51;;;;;;;1.95;1.87;;;;;;;;;;1803371;78;26738;-46
2022/03/21 14:37:18;;;;;;;2.77;2.37;;;;;;;;;;1788768;78;27865;-46
2022/03/21 14:39:45;;;;;;;2.10;1.95;;;;;;;;;;1819581;78;26554;-50
2022/03/21 14:42:12;;;;;;;2.08;1.98;;;;;;;;;;1796933;79;26283;-50
2022/03/21 14:44:39;;;;;;;2.17;2.08;;;;;;;;;;1787359;79;26403;-47
2022/03/21 14:47:07;;;;;;;2.15;2.05;;;;;;;;;;1780237;79;26282;-47
2022/03/21 14:49:34;;;;;;;2.08;1.98;;;;;;;;;;1786810;79;26284;-46
2022/03/21 14:52:01;;;;;;;2.10;2.00;;;;;;;;;;1792476;78;26302;-48
2022/03/21 14:54:29;;;;;;;2.02;1.92;;;;;;;;;;1803008;79;26276;-52
2022/03/21 14:56:58;;;;;;;2.10;2.00;;;;;;;;;;1791334;78;26295;-47
2022/03/21 14:59:25;;;;;;;2.10;1.98;;;;;;;;;;1793845;79;26283;-50
2022/03/21 15:01:53;;;;;;;2.12;2.02;;;;;;;;;;1803034;79;26604;-48
2022/03/21 15:04:20;;;;;;;2.17;2.08;;;;;;;;;;1801520;78;26582;-48
2022/03/21 15:06:47;;;;;;;2.40;2.30;;;;;;;;;;1769889;78;28405;-48
2022/03/21 15:09:14;;;;;;;1.90;1.80;;;;;;;;;;1788965;79;26223;-49
2022/03/21 15:11:42;;;;;;;2.95;2.20;;;;;;;;;;1778855;78;26215;-49